Terminal Aerodrome Forecast
Issued by NWS Mt. Holly, NJ

Home | Current Version | Previous Version | Text Only | Print | Product List | Glossary On
Versions: 1 2 3 4 5 6 7 8 9 10 11 12 13 14 15 16 17 18 19 20 21 22 23 24 25
000
FTUS41 KPHI 251100
TAFILG
TAF
KILG 251130Z 2512/2612 26010KT P6SM OVC060
     FM251500 29010G18KT P6SM BKN040
     FM252200 35006KT P6SM OVC050
     FM260400 03010KT 5SM -SN OVC030
     FM260500 05012KT 2SM -SN SCT009 OVC015
     FM260900 06010KT 1SM -SN OVC009=

USA.gov is the U.S. government's official web portal to all federal, state and local government web resources and services.